sensor_id;sensor_type;location;lat;lon;timestamp;P1;durP1;ratioP1;P2;durP2;ratioP2
75087;SDS011;63664;44.868;40.600;2023-02-27T00:00:28;15.02;;;7.53;;
75087;SDS011;63664;44.868;40.600;2023-02-27T00:02:57;12.57;;;7.68;;
75087;SDS011;63664;44.868;40.600;2023-02-27T00:05:23;12.25;;;6.68;;
75087;SDS011;63664;44.868;40.600;2023-02-27T00:07:50;12.68;;;7.35;;
75087;SDS011;63664;44.868;40.600;2023-02-27T00:10:19;13.65;;;7.05;;
75087;SDS011;63664;44.868;40.600;2023-02-27T00:12:48;13.32;;;7.90;;
75087;SDS011;63664;44.868;40.600;2023-02-27T00:15:17;17.38;;;7.72;;
75087;SDS011;63664;44.868;40.600;2023-02-27T00:17:47;14.77;;;7.43;;
75087;SDS011;63664;44.868;40.600;2023-02-27T00:20:16;15.00;;;7.13;;
75087;SDS011;63664;44.868;40.600;2023-02-27T00:22:44;14.40;;;7.72;;
75087;SDS011;63664;44.868;40.600;2023-02-27T00:25:11;15.05;;;7.20;;
75087;SDS011;63664;44.868;40.600;2023-02-27T00:27:38;11.38;;;6.32;;
75087;SDS011;63664;44.868;40.600;2023-02-27T00:30:04;13.27;;;6.70;;
75087;SDS011;63664;44.868;40.600;2023-02-27T00:32:34;10.68;;;7.10;;
75087;SDS011;63664;44.868;40.600;2023-02-27T00:35:04;13.40;;;7.35;;
75087;SDS011;63664;44.868;40.600;2023-02-27T00:37:33;13.07;;;7.10;;
75087;SDS011;63664;44.868;40.600;2023-02-27T00:40:02;14.27;;;7.28;;
75087;SDS011;63664;44.868;40.600;2023-02-27T00:42:32;15.25;;;6.93;;
75087;SDS011;63664;44.868;40.600;2023-02-27T00:45:02;13.30;;;6.18;;
75087;SDS011;63664;44.868;40.600;2023-02-27T00:47:32;11.77;;;6.22;;
75087;SDS011;63664;44.868;40.600;2023-02-27T00:50:02;10.77;;;6.38;;
75087;SDS011;63664;44.868;40.600;2023-02-27T00:52:29;12.45;;;5.72;;
75087;SDS011;63664;44.868;40.600;2023-02-27T00:55:00;10.85;;;6.13;;
75087;SDS011;63664;44.868;40.600;2023-02-27T00:57:27;13.48;;;7.28;;
75087;SDS011;63664;44.868;40.600;2023-02-27T00:59:56;16.50;;;6.28;;
75087;SDS011;63664;44.868;40.600;2023-02-27T01:02:25;9.23;;;5.25;;
75087;SDS011;63664;44.868;40.600;2023-02-27T01:04:54;9.05;;;4.53;;
75087;SDS011;63664;44.868;40.600;2023-02-27T01:07:22;8.68;;;5.53;;
75087;SDS011;63664;44.868;40.600;2023-02-27T01:09:49;8.93;;;5.20;;
75087;SDS011;63664;44.868;40.600;2023-02-27T01:12:15;8.18;;;4.85;;
75087;SDS011;63664;44.868;40.600;2023-02-27T01:14:43;8.38;;;5.05;;
75087;SDS011;63664;44.868;40.600;2023-02-27T01:17:10;8.48;;;4.40;;
75087;SDS011;63664;44.868;40.600;2023-02-27T01:19:36;10.80;;;5.00;;
75087;SDS011;63664;44.868;40.600;2023-02-27T01:22:05;10.13;;;4.57;;
75087;SDS011;63664;44.868;40.600;2023-02-27T01:24:35;6.15;;;4.15;;
75087;SDS011;63664;44.868;40.600;2023-02-27T01:27:06;9.50;;;4.95;;
75087;SDS011;63664;44.868;40.600;2023-02-27T01:29:35;7.03;;;4.57;;
75087;SDS011;63664;44.868;40.600;2023-02-27T01:32:02;7.22;;;4.13;;
75087;SDS011;63664;44.868;40.600;2023-02-27T01:34:30;9.57;;;4.38;;
75087;SDS011;63664;44.868;40.600;2023-02-27T01:36:56;5.90;;;4.07;;
75087;SDS011;63664;44.868;40.600;2023-02-27T01:39:25;6.95;;;4.63;;
75087;SDS011;63664;44.868;40.600;2023-02-27T01:41:52;8.15;;;4.13;;
75087;SDS011;63664;44.868;40.600;2023-02-27T01:44:20;7.95;;;4.85;;
75087;SDS011;63664;44.868;40.600;2023-02-27T01:46:47;7.15;;;4.10;;
75087;SDS011;63664;44.868;40.600;2023-02-27T01:51:45;5.97;;;3.78;;
75087;SDS011;63664;44.868;40.600;2023-02-27T01:54:34;10.27;;;4.43;;
75087;SDS011;63664;44.868;40.600;2023-02-27T01:57:06;10.18;;;4.22;;
75087;SDS011;63664;44.868;40.600;2023-02-27T01:59:37;7.68;;;3.78;;
75087;SDS011;63664;44.868;40.600;2023-02-27T02:02:08;8.70;;;4.13;;
75087;SDS011;63664;44.868;40.600;2023-02-27T02:04:58;4.82;;;3.65;;
75087;SDS011;63664;44.868;40.600;2023-02-27T02:07:25;6.13;;;3.35;;
75087;SDS011;63664;44.868;40.600;2023-02-27T02:09:56;7.70;;;4.43;;
75087;SDS011;63664;44.868;40.600;2023-02-27T02:12:30;7.28;;;3.60;;
75087;SDS011;63664;44.868;40.600;2023-02-27T02:15:00;6.15;;;3.53;;
75087;SDS011;63664;44.868;40.600;2023-02-27T02:34:40;5.97;;;3.38;;
75087;SDS011;63664;44.868;40.600;2023-02-27T02:40:22;6.85;;;4.30;;
75087;SDS011;63664;44.868;40.600;2023-02-27T02:46:12;7.35;;;4.28;;
75087;SDS011;63664;44.868;40.600;2023-02-27T02:48:58;7.80;;;4.57;;
75087;SDS011;63664;44.868;40.600;2023-02-27T02:51:46;8.52;;;4.57;;
75087;SDS011;63664;44.868;40.600;2023-02-27T02:54:29;8.50;;;4.50;;
75087;SDS011;63664;44.868;40.600;2023-02-27T02:57:18;9.45;;;4.50;;
75087;SDS011;63664;44.868;40.600;2023-02-27T03:00:04;10.10;;;4.68;;
75087;SDS011;63664;44.868;40.600;2023-02-27T03:02:42;11.85;;;4.85;;
75087;SDS011;63664;44.868;40.600;2023-02-27T03:05:16;9.05;;;5.88;;
75087;SDS011;63664;44.868;40.600;2023-02-27T03:07:52;8.32;;;4.65;;
75087;SDS011;63664;44.868;40.600;2023-02-27T03:10:27;6.90;;;4.32;;
75087;SDS011;63664;44.868;40.600;2023-02-27T03:13:16;8.07;;;4.30;;
75087;SDS011;63664;44.868;40.600;2023-02-27T03:15:58;8.52;;;4.45;;
75087;SDS011;63664;44.868;40.600;2023-02-27T03:18:34;8.23;;;4.10;;
75087;SDS011;63664;44.868;40.600;2023-02-27T03:21:12;8.63;;;3.53;;
75087;SDS011;63664;44.868;40.600;2023-02-27T03:27:11;8.18;;;3.85;;
75087;SDS011;63664;44.868;40.600;2023-02-27T03:29:41;7.70;;;3.88;;
75087;SDS011;63664;44.868;40.600;2023-02-27T03:32:23;8.25;;;4.00;;
75087;SDS011;63664;44.868;40.600;2023-02-27T03:35:07;11.77;;;4.28;;
75087;SDS011;63664;44.868;40.600;2023-02-27T03:37:42;6.97;;;3.53;;
75087;SDS011;63664;44.868;40.600;2023-02-27T03:43:30;9.93;;;4.22;;
75087;SDS011;63664;44.868;40.600;2023-02-27T03:45:58;4.80;;;3.25;;
75087;SDS011;63664;44.868;40.600;2023-02-27T03:48:40;5.05;;;3.35;;
75087;SDS011;63664;44.868;40.600;2023-02-27T03:51:10;7.68;;;3.58;;
75087;SDS011;63664;44.868;40.600;2023-02-27T03:54:21;7.40;;;3.92;;
75087;SDS011;63664;44.868;40.600;2023-02-27T03:56:39;7.95;;;4.22;;
75087;SDS011;63664;44.868;40.600;2023-02-27T03:59:12;8.50;;;3.75;;
75087;SDS011;63664;44.868;40.600;2023-02-27T04:01:46;9.15;;;4.10;;
75087;SDS011;63664;44.868;40.600;2023-02-27T04:04:15;8.70;;;4.50;;
75087;SDS011;63664;44.868;40.600;2023-02-27T04:07:04;6.18;;;4.00;;
75087;SDS011;63664;44.868;40.600;2023-02-27T04:24:37;5.20;;;3.15;;
75087;SDS011;63664;44.868;40.600;2023-02-27T04:32:56;7.30;;;3.35;;
75087;SDS011;63664;44.868;40.600;2023-02-27T04:35:55;8.27;;;3.30;;
75087;SDS011;63664;44.868;40.600;2023-02-27T04:41:06;10.25;;;4.50;;
75087;SDS011;63664;44.868;40.600;2023-02-27T04:43:40;7.70;;;2.65;;
75087;SDS011;63664;44.868;40.600;2023-02-27T04:46:09;5.00;;;3.55;;
75087;SDS011;63664;44.868;40.600;2023-02-27T04:48:53;7.32;;;3.38;;
75087;SDS011;63664;44.868;40.600;2023-02-27T04:51:31;5.05;;;3.30;;
75087;SDS011;63664;44.868;40.600;2023-02-27T04:54:13;6.25;;;3.40;;
75087;SDS011;63664;44.868;40.600;2023-02-27T04:56:47;6.45;;;3.30;;
75087;SDS011;63664;44.868;40.600;2023-02-27T04:59:20;5.93;;;3.75;;
75087;SDS011;63664;44.868;40.600;2023-02-27T05:02:16;10.80;;;3.90;;
75087;SDS011;63664;44.868;40.600;2023-02-27T05:04:52;10.85;;;3.63;;
75087;SDS011;63664;44.868;40.600;2023-02-27T05:07:24;6.22;;;3.30;;
75087;SDS011;63664;44.868;40.600;2023-02-27T05:10:03;6.78;;;3.40;;
75087;SDS011;63664;44.868;40.600;2023-02-27T05:12:37;7.38;;;3.17;;
75087;SDS011;63664;44.868;40.600;2023-02-27T05:15:13;8.48;;;3.50;;
75087;SDS011;63664;44.868;40.600;2023-02-27T05:18:04;6.72;;;3.25;;
75087;SDS011;63664;44.868;40.600;2023-02-27T05:20:53;6.35;;;3.20;;
75087;SDS011;63664;44.868;40.600;2023-02-27T05:23:37;6.18;;;3.33;;
75087;SDS011;63664;44.868;40.600;2023-02-27T05:26:15;6.32;;;2.95;;
75087;SDS011;63664;44.868;40.600;2023-02-27T05:31:33;8.85;;;3.33;;
75087;SDS011;63664;44.868;40.600;2023-02-27T05:37:07;6.18;;;3.75;;
75087;SDS011;63664;44.868;40.600;2023-02-27T05:39:40;8.65;;;4.30;;
75087;SDS011;63664;44.868;40.600;2023-02-27T05:42:16;7.35;;;3.35;;
75087;SDS011;63664;44.868;40.600;2023-02-27T05:44:53;13.82;;;3.50;;
75087;SDS011;63664;44.868;40.600;2023-02-27T05:47:29;5.05;;;3.15;;
75087;SDS011;63664;44.868;40.600;2023-02-27T05:50:09;7.97;;;3.08;;
75087;SDS011;63664;44.868;40.600;2023-02-27T05:52:51;6.25;;;3.17;;
75087;SDS011;63664;44.868;40.600;2023-02-27T05:55:21;13.25;;;3.55;;
75087;SDS011;63664;44.868;40.600;2023-02-27T05:58:02;9.55;;;3.50;;
75087;SDS011;63664;44.868;40.600;2023-02-27T06:00:48;6.22;;;3.75;;
75087;SDS011;63664;44.868;40.600;2023-02-27T06:03:19;7.38;;;3.13;;
75087;SDS011;63664;44.868;40.600;2023-02-27T06:05:48;9.95;;;3.63;;
75087;SDS011;63664;44.868;40.600;2023-02-27T06:08:18;10.07;;;3.28;;
75087;SDS011;63664;44.868;40.600;2023-02-27T06:10:47;10.88;;;3.63;;
75087;SDS011;63664;44.868;40.600;2023-02-27T06:13:19;7.25;;;2.80;;
75087;SDS011;63664;44.868;40.600;2023-02-27T06:15:47;9.20;;;3.42;;
75087;SDS011;63664;44.868;40.600;2023-02-27T06:18:16;8.30;;;3.17;;
75087;SDS011;63664;44.868;40.600;2023-02-27T06:20:46;5.45;;;3.42;;
75087;SDS011;63664;44.868;40.600;2023-02-27T06:23:13;5.97;;;3.50;;
75087;SDS011;63664;44.868;40.600;2023-02-27T06:25:39;7.40;;;3.10;;
75087;SDS011;63664;44.868;40.600;2023-02-27T06:28:12;5.97;;;2.72;;
75087;SDS011;63664;44.868;40.600;2023-02-27T06:30:38;6.95;;;3.92;;
75087;SDS011;63664;44.868;40.600;2023-02-27T06:33:06;13.73;;;4.43;;
75087;SDS011;63664;44.868;40.600;2023-02-27T06:35:39;13.52;;;6.28;;
75087;SDS011;63664;44.868;40.600;2023-02-27T06:38:05;19.23;;;6.88;;
75087;SDS011;63664;44.868;40.600;2023-02-27T06:40:37;16.92;;;5.38;;
75087;SDS011;63664;44.868;40.600;2023-02-27T06:43:06;8.15;;;3.90;;
75087;SDS011;63664;44.868;40.600;2023-02-27T06:45:39;11.98;;;4.68;;
75087;SDS011;63664;44.868;40.600;2023-02-27T06:48:10;10.55;;;4.30;;
75087;SDS011;63664;44.868;40.600;2023-02-27T06:50:40;11.60;;;3.35;;
75087;SDS011;63664;44.868;40.600;2023-02-27T06:53:08;7.35;;;3.90;;
75087;SDS011;63664;44.868;40.600;2023-02-27T06:55:37;8.88;;;3.70;;
75087;SDS011;63664;44.868;40.600;2023-02-27T06:58:06;13.75;;;5.18;;
75087;SDS011;63664;44.868;40.600;2023-02-27T07:00:37;7.50;;;3.70;;
75087;SDS011;63664;44.868;40.600;2023-02-27T07:03:03;11.63;;;3.67;;
75087;SDS011;63664;44.868;40.600;2023-02-27T07:05:30;7.35;;;3.47;;
75087;SDS011;63664;44.868;40.600;2023-02-27T07:07:56;7.47;;;3.55;;
75087;SDS011;63664;44.868;40.600;2023-02-27T07:10:23;10.00;;;4.20;;
75087;SDS011;63664;44.868;40.600;2023-02-27T07:12:55;8.80;;;3.50;;
75087;SDS011;63664;44.868;40.600;2023-02-27T07:15:23;7.70;;;3.65;;
75087;SDS011;63664;44.868;40.600;2023-02-27T07:17:49;6.20;;;3.42;;
75087;SDS011;63664;44.868;40.600;2023-02-27T07:20:16;8.07;;;3.28;;
75087;SDS011;63664;44.868;40.600;2023-02-27T07:22:45;6.95;;;2.92;;
75087;SDS011;63664;44.868;40.600;2023-02-27T07:25:16;7.75;;;3.17;;
75087;SDS011;63664;44.868;40.600;2023-02-27T07:27:42;5.28;;;3.20;;
75087;SDS011;63664;44.868;40.600;2023-02-27T07:30:10;5.30;;;2.75;;
75087;SDS011;63664;44.868;40.600;2023-02-27T07:32:39;5.68;;;2.92;;
75087;SDS011;63664;44.868;40.600;2023-02-27T07:35:06;6.20;;;3.05;;
75087;SDS011;63664;44.868;40.600;2023-02-27T07:37:37;11.80;;;3.10;;
75087;SDS011;63664;44.868;40.600;2023-02-27T07:40:04;6.53;;;3.03;;
75087;SDS011;63664;44.868;40.600;2023-02-27T07:42:32;8.13;;;3.03;;
75087;SDS011;63664;44.868;40.600;2023-02-27T07:45:01;6.25;;;2.92;;
75087;SDS011;63664;44.868;40.600;2023-02-27T07:47:30;6.40;;;2.97;;
75087;SDS011;63664;44.868;40.600;2023-02-27T07:50:02;9.50;;;3.30;;
75087;SDS011;63664;44.868;40.600;2023-02-27T07:52:28;7.05;;;3.22;;
75087;SDS011;63664;44.868;40.600;2023-02-27T07:54:57;7.28;;;3.50;;
75087;SDS011;63664;44.868;40.600;2023-02-27T07:57:26;9.90;;;3.38;;
75087;SDS011;63664;44.868;40.600;2023-02-27T07:59:57;7.60;;;3.22;;
75087;SDS011;63664;44.868;40.600;2023-02-27T08:02:23;10.85;;;3.45;;
75087;SDS011;63664;44.868;40.600;2023-02-27T08:04:52;10.57;;;3.35;;
75087;SDS011;63664;44.868;40.600;2023-02-27T08:07:20;9.48;;;3.33;;
75087;SDS011;63664;44.868;40.600;2023-02-27T08:09:47;10.18;;;3.28;;
75087;SDS011;63664;44.868;40.600;2023-02-27T08:12:16;4.68;;;2.75;;
75087;SDS011;63664;44.868;40.600;2023-02-27T08:14:44;7.75;;;3.33;;
75087;SDS011;63664;44.868;40.600;2023-02-27T08:17:13;5.60;;;3.30;;
75087;SDS011;63664;44.868;40.600;2023-02-27T08:19:44;6.00;;;2.80;;
75087;SDS011;63664;44.868;40.600;2023-02-27T08:22:13;5.55;;;3.08;;
75087;SDS011;63664;44.868;40.600;2023-02-27T08:24:39;13.75;;;3.00;;
75087;SDS011;63664;44.868;40.600;2023-02-27T08:27:08;11.98;;;3.67;;
75087;SDS011;63664;44.868;40.600;2023-02-27T08:29:34;11.07;;;4.40;;
75087;SDS011;63664;44.868;40.600;2023-02-27T08:32:01;8.65;;;2.92;;
75087;SDS011;63664;44.868;40.600;2023-02-27T08:34:31;7.75;;;3.97;;
75087;SDS011;63664;44.868;40.600;2023-02-27T08:37:00;6.80;;;3.17;;
75087;SDS011;63664;44.868;40.600;2023-02-27T08:39:28;5.85;;;3.15;;
75087;SDS011;63664;44.868;40.600;2023-02-27T08:41:57;10.43;;;3.38;;
75087;SDS011;63664;44.868;40.600;2023-02-27T08:44:23;8.23;;;3.63;;
75087;SDS011;63664;44.868;40.600;2023-02-27T08:46:52;8.30;;;3.33;;
75087;SDS011;63664;44.868;40.600;2023-02-27T08:49:18;4.55;;;2.90;;
75087;SDS011;63664;44.868;40.600;2023-02-27T08:51:47;7.55;;;2.88;;
75087;SDS011;63664;44.868;40.600;2023-02-27T08:54:17;6.40;;;3.00;;
75087;SDS011;63664;44.868;40.600;2023-02-27T08:56:43;4.90;;;2.90;;
75087;SDS011;63664;44.868;40.600;2023-02-27T08:59:10;5.53;;;3.08;;
75087;SDS011;63664;44.868;40.600;2023-02-27T09:01:36;13.75;;;4.50;;
75087;SDS011;63664;44.868;40.600;2023-02-27T09:04:03;11.50;;;5.57;;
75087;SDS011;63664;44.868;40.600;2023-02-27T09:06:30;7.70;;;3.22;;
75087;SDS011;63664;44.868;40.600;2023-02-27T09:09:01;11.10;;;2.88;;
75087;SDS011;63664;44.868;40.600;2023-02-27T09:11:28;5.50;;;2.65;;
75087;SDS011;63664;44.868;40.600;2023-02-27T09:13:57;8.07;;;2.95;;
75087;SDS011;63664;44.868;40.600;2023-02-27T09:16:26;7.38;;;3.60;;
75087;SDS011;63664;44.868;40.600;2023-02-27T09:18:54;9.93;;;3.33;;
75087;SDS011;63664;44.868;40.600;2023-02-27T09:21:21;6.18;;;2.92;;
75087;SDS011;63664;44.868;40.600;2023-02-27T09:23:50;8.60;;;3.03;;
75087;SDS011;63664;44.868;40.600;2023-02-27T09:26:19;6.55;;;2.83;;
75087;SDS011;63664;44.868;40.600;2023-02-27T09:28:48;4.68;;;2.80;;
75087;SDS011;63664;44.868;40.600;2023-02-27T09:31:17;5.05;;;2.70;;
75087;SDS011;63664;44.868;40.600;2023-02-27T09:33:43;7.72;;;2.50;;
75087;SDS011;63664;44.868;40.600;2023-02-27T09:36:12;6.13;;;2.90;;
75087;SDS011;63664;44.868;40.600;2023-02-27T09:38:41;4.45;;;3.00;;
75087;SDS011;63664;44.868;40.600;2023-02-27T09:43:59;4.85;;;2.55;;
75087;SDS011;63664;44.868;40.600;2023-02-27T09:46:26;4.80;;;2.40;;
75087;SDS011;63664;44.868;40.600;2023-02-27T09:48:55;9.70;;;2.50;;
75087;SDS011;63664;44.868;40.600;2023-02-27T09:51:27;6.03;;;2.28;;
75087;SDS011;63664;44.868;40.600;2023-02-27T09:53:54;6.75;;;3.45;;
75087;SDS011;63664;44.868;40.600;2023-02-27T09:56:34;6.10;;;2.97;;
75087;SDS011;63664;44.868;40.600;2023-02-27T10:08:50;11.75;;;5.47;;
75087;SDS011;63664;44.868;40.600;2023-02-27T10:11:07;11.00;;;3.67;;
75087;SDS011;63664;44.868;40.600;2023-02-27T10:13:43;5.38;;;3.17;;
75087;SDS011;63664;44.868;40.600;2023-02-27T10:16:16;5.15;;;2.75;;
75087;SDS011;63664;44.868;40.600;2023-02-27T10:21:21;4.15;;;2.47;;
75087;SDS011;63664;44.868;40.600;2023-02-27T10:26:54;5.65;;;2.50;;
75087;SDS011;63664;44.868;40.600;2023-02-27T10:29:34;5.35;;;2.50;;
75087;SDS011;63664;44.868;40.600;2023-02-27T10:32:09;5.15;;;3.22;;
75087;SDS011;63664;44.868;40.600;2023-02-27T10:34:51;6.40;;;2.70;;
75087;SDS011;63664;44.868;40.600;2023-02-27T10:37:37;4.90;;;2.33;;
75087;SDS011;63664;44.868;40.600;2023-02-27T10:40:14;4.20;;;2.10;;
75087;SDS011;63664;44.868;40.600;2023-02-27T10:42:42;4.18;;;2.35;;
75087;SDS011;63664;44.868;40.600;2023-02-27T10:45:17;3.97;;;2.28;;
75087;SDS011;63664;44.868;40.600;2023-02-27T10:47:43;2.88;;;1.92;;
75087;SDS011;63664;44.868;40.600;2023-02-27T10:50:21;3.28;;;2.22;;
75087;SDS011;63664;44.868;40.600;2023-02-27T10:52:54;4.20;;;2.10;;
75087;SDS011;63664;44.868;40.600;2023-02-27T10:55:31;4.30;;;2.40;;
75087;SDS011;63664;44.868;40.600;2023-02-27T10:58:01;7.00;;;2.42;;
75087;SDS011;63664;44.868;40.600;2023-02-27T11:00:37;3.28;;;2.10;;
75087;SDS011;63664;44.868;40.600;2023-02-27T11:03:24;4.43;;;2.30;;
75087;SDS011;63664;44.868;40.600;2023-02-27T11:06:03;5.57;;;2.08;;
75087;SDS011;63664;44.868;40.600;2023-02-27T11:08:34;3.55;;;2.08;;
75087;SDS011;63664;44.868;40.600;2023-02-27T11:11:07;5.80;;;2.20;;
75087;SDS011;63664;44.868;40.600;2023-02-27T11:13:38;3.40;;;2.17;;
75087;SDS011;63664;44.868;40.600;2023-02-27T11:16:07;8.18;;;2.50;;
75087;SDS011;63664;44.868;40.600;2023-02-27T11:18:35;5.82;;;2.58;;
75087;SDS011;63664;44.868;40.600;2023-02-27T11:23:53;5.75;;;2.20;;
75087;SDS011;63664;44.868;40.600;2023-02-27T11:26:59;6.80;;;2.65;;
75087;SDS011;63664;44.868;40.600;2023-02-27T11:29:34;6.35;;;3.05;;
75087;SDS011;63664;44.868;40.600;2023-02-27T11:32:09;3.85;;;2.55;;
75087;SDS011;63664;44.868;40.600;2023-02-27T11:34:45;3.50;;;2.30;;
75087;SDS011;63664;44.868;40.600;2023-02-27T11:37:34;9.68;;;2.90;;
75087;SDS011;63664;44.868;40.600;2023-02-27T11:40:11;4.82;;;2.45;;
75087;SDS011;63664;44.868;40.600;2023-02-27T11:42:46;8.27;;;2.58;;
75087;SDS011;63664;44.868;40.600;2023-02-27T11:47:47;4.00;;;2.30;;
75087;SDS011;63664;44.868;40.600;2023-02-27T11:53:13;5.47;;;2.53;;
75087;SDS011;63664;44.868;40.600;2023-02-27T11:55:48;4.72;;;2.15;;
75087;SDS011;63664;44.868;40.600;2023-02-27T11:58:21;4.85;;;2.38;;
75087;SDS011;63664;44.868;40.600;2023-02-27T12:00:56;3.90;;;2.33;;
75087;SDS011;63664;44.868;40.600;2023-02-27T12:06:09;7.30;;;2.50;;
75087;SDS011;63664;44.868;40.600;2023-02-27T12:08:49;3.92;;;2.08;;
75087;SDS011;63664;44.868;40.600;2023-02-27T12:11:24;4.53;;;2.50;;
75087;SDS011;63664;44.868;40.600;2023-02-27T12:16:47;4.65;;;2.22;;
75087;SDS011;63664;44.868;40.600;2023-02-27T12:22:38;4.55;;;2.60;;
75087;SDS011;63664;44.868;40.600;2023-02-27T12:27:42;7.50;;;2.47;;
75087;SDS011;63664;44.868;40.600;2023-02-27T12:30:23;7.32;;;3.10;;
75087;SDS011;63664;44.868;40.600;2023-02-27T12:33:02;3.83;;;2.28;;
75087;SDS011;63664;44.868;40.600;2023-02-27T12:35:37;5.03;;;2.67;;
75087;SDS011;63664;44.868;40.600;2023-02-27T12:38:09;5.82;;;3.10;;
75087;SDS011;63664;44.868;40.600;2023-02-27T12:40:52;6.45;;;3.00;;
75087;SDS011;63664;44.868;40.600;2023-02-27T12:54:57;7.70;;;1.88;;
75087;SDS011;63664;44.868;40.600;2023-02-27T13:02:57;3.95;;;2.03;;
75087;SDS011;63664;44.868;40.600;2023-02-27T13:05:50;6.13;;;2.17;;
75087;SDS011;63664;44.868;40.600;2023-02-27T13:08:31;5.13;;;2.13;;
75087;SDS011;63664;44.868;40.600;2023-02-27T13:17:15;4.35;;;1.50;;
75087;SDS011;63664;44.868;40.600;2023-02-27T13:19:57;3.30;;;1.35;;
75087;SDS011;63664;44.868;40.600;2023-02-27T13:22:59;4.10;;;1.50;;
75087;SDS011;63664;44.868;40.600;2023-02-27T13:25:49;3.35;;;1.33;;
75087;SDS011;63664;44.868;40.600;2023-02-27T13:28:21;3.08;;;1.67;;
75087;SDS011;63664;44.868;40.600;2023-02-27T13:33:34;3.05;;;1.35;;
75087;SDS011;63664;44.868;40.600;2023-02-27T13:36:46;5.57;;;1.90;;
75087;SDS011;63664;44.868;40.600;2023-02-27T13:42:52;5.05;;;1.90;;
75087;SDS011;63664;44.868;40.600;2023-02-27T13:45:01;7.63;;;2.17;;
75087;SDS011;63664;44.868;40.600;2023-02-27T13:47:38;7.55;;;2.35;;
75087;SDS011;63664;44.868;40.600;2023-02-27T13:52:43;4.30;;;2.03;;
75087;SDS011;63664;44.868;40.600;2023-02-27T13:57:56;9.88;;;5.10;;
75087;SDS011;63664;44.868;40.600;2023-02-27T14:00:25;8.48;;;4.43;;
75087;SDS011;63664;44.868;40.600;2023-02-27T14:05:42;11.20;;;6.22;;
75087;SDS011;63664;44.868;40.600;2023-02-27T14:10:54;29.20;;;11.55;;
75087;SDS011;63664;44.868;40.600;2023-02-27T14:24:33;15.75;;;5.75;;
75087;SDS011;63664;44.868;40.600;2023-02-27T14:27:24;22.58;;;9.07;;
75087;SDS011;63664;44.868;40.600;2023-02-27T14:29:53;27.17;;;8.60;;
75087;SDS011;63664;44.868;40.600;2023-02-27T14:32:23;26.90;;;11.65;;
75087;SDS011;63664;44.868;40.600;2023-02-27T14:34:56;26.40;;;12.93;;
75087;SDS011;63664;44.868;40.600;2023-02-27T14:37:23;30.85;;;12.63;;
75087;SDS011;63664;44.868;40.600;2023-02-27T14:39:51;29.90;;;13.00;;
75087;SDS011;63664;44.868;40.600;2023-02-27T14:44:49;32.65;;;12.38;;
75087;SDS011;63664;44.868;40.600;2023-02-27T14:47:33;39.65;;;12.20;;
75087;SDS011;63664;44.868;40.600;2023-02-27T14:50:05;43.83;;;13.43;;
75087;SDS011;63664;44.868;40.600;2023-02-27T14:52:55;57.13;;;15.70;;
75087;SDS011;63664;44.868;40.600;2023-02-27T14:55:23;75.63;;;17.15;;
75087;SDS011;63664;44.868;40.600;2023-02-27T15:00:36;50.13;;;13.80;;
75087;SDS011;63664;44.868;40.600;2023-02-27T15:03:47;31.50;;;14.32;;
75087;SDS011;63664;44.868;40.600;2023-02-27T15:06:05;55.50;;;14.70;;
75087;SDS011;63664;44.868;40.600;2023-02-27T15:08:40;42.17;;;14.63;;
75087;SDS011;63664;44.868;40.600;2023-02-27T15:11:13;47.55;;;13.63;;
75087;SDS011;63664;44.868;40.600;2023-02-27T15:13:46;79.32;;;23.90;;
75087;SDS011;63664;44.868;40.600;2023-02-27T15:19:01;51.80;;;16.75;;
75087;SDS011;63664;44.868;40.600;2023-02-27T15:21:45;42.28;;;15.30;;
75087;SDS011;63664;44.868;40.600;2023-02-27T15:24:22;38.88;;;14.20;;
75087;SDS011;63664;44.868;40.600;2023-02-27T15:27:00;36.85;;;15.70;;
75087;SDS011;63664;44.868;40.600;2023-02-27T15:29:39;49.10;;;17.92;;
75087;SDS011;63664;44.868;40.600;2023-02-27T15:32:14;40.67;;;16.98;;
75087;SDS011;63664;44.868;40.600;2023-02-27T15:34:59;59.90;;;20.02;;
75087;SDS011;63664;44.868;40.600;2023-02-27T15:37:32;59.72;;;22.77;;
75087;SDS011;63664;44.868;40.600;2023-02-27T15:40:01;93.88;;;34.58;;
75087;SDS011;63664;44.868;40.600;2023-02-27T15:42:31;88.85;;;32.55;;
75087;SDS011;63664;44.868;40.600;2023-02-27T15:45:02;73.88;;;25.55;;
75087;SDS011;63664;44.868;40.600;2023-02-27T15:47:31;75.10;;;25.90;;
75087;SDS011;63664;44.868;40.600;2023-02-27T15:52:52;94.72;;;31.38;;
75087;SDS011;63664;44.868;40.600;2023-02-27T15:55:26;86.07;;;31.45;;
75087;SDS011;63664;44.868;40.600;2023-02-27T15:57:57;85.57;;;31.05;;
75087;SDS011;63664;44.868;40.600;2023-02-27T16:00:26;44.42;;;17.55;;
75087;SDS011;63664;44.868;40.600;2023-02-27T16:03:00;53.20;;;18.13;;
75087;SDS011;63664;44.868;40.600;2023-02-27T16:05:29;54.22;;;20.40;;
75087;SDS011;63664;44.868;40.600;2023-02-27T16:08:03;55.30;;;18.92;;
75087;SDS011;63664;44.868;40.600;2023-02-27T16:10:49;56.50;;;21.52;;
75087;SDS011;63664;44.868;40.600;2023-02-27T16:13:20;57.50;;;20.92;;
75087;SDS011;63664;44.868;40.600;2023-02-27T16:16:00;141.02;;;42.55;;
75087;SDS011;63664;44.868;40.600;2023-02-27T16:19:14;131.88;;;39.40;;
75087;SDS011;63664;44.868;40.600;2023-02-27T16:21:27;173.13;;;64.50;;
75087;SDS011;63664;44.868;40.600;2023-02-27T16:24:17;134.25;;;47.78;;
75087;SDS011;63664;44.868;40.600;2023-02-27T16:26:54;177.35;;;58.35;;
75087;SDS011;63664;44.868;40.600;2023-02-27T16:29:21;161.30;;;53.45;;
75087;SDS011;63664;44.868;40.600;2023-02-27T16:31:56;142.02;;;46.90;;
75087;SDS011;63664;44.868;40.600;2023-02-27T16:34:35;109.85;;;34.97;;
75087;SDS011;63664;44.868;40.600;2023-02-27T16:40:15;193.48;;;58.00;;
75087;SDS011;63664;44.868;40.600;2023-02-27T16:42:49;215.65;;;66.35;;
75087;SDS011;63664;44.868;40.600;2023-02-27T16:45:24;324.33;;;104.15;;
75087;SDS011;63664;44.868;40.600;2023-02-27T16:47:53;237.15;;;74.00;;
75087;SDS011;63664;44.868;40.600;2023-02-27T16:50:39;101.72;;;36.35;;
75087;SDS011;63664;44.868;40.600;2023-02-27T16:53:08;147.48;;;43.33;;
75087;SDS011;63664;44.868;40.600;2023-02-27T16:55:37;123.68;;;43.10;;
75087;SDS011;63664;44.868;40.600;2023-02-27T16:58:17;102.90;;;38.15;;
75087;SDS011;63664;44.868;40.600;2023-02-27T17:00:48;145.48;;;48.30;;
75087;SDS011;63664;44.868;40.600;2023-02-27T17:03:15;263.95;;;87.78;;
75087;SDS011;63664;44.868;40.600;2023-02-27T17:05:44;311.42;;;107.00;;
75087;SDS011;63664;44.868;40.600;2023-02-27T17:08:13;241.88;;;87.13;;
75087;SDS011;63664;44.868;40.600;2023-02-27T17:10:39;224.73;;;75.95;;
75087;SDS011;63664;44.868;40.600;2023-02-27T17:13:05;224.95;;;70.07;;
75087;SDS011;63664;44.868;40.600;2023-02-27T17:15:32;194.80;;;67.40;;
75087;SDS011;63664;44.868;40.600;2023-02-27T17:18:00;177.15;;;64.57;;
75087;SDS011;63664;44.868;40.600;2023-02-27T17:20:27;190.07;;;63.88;;
75087;SDS011;63664;44.868;40.600;2023-02-27T17:22:59;179.40;;;57.42;;
75087;SDS011;63664;44.868;40.600;2023-02-27T17:25:28;168.27;;;58.95;;
75087;SDS011;63664;44.868;40.600;2023-02-27T17:27:57;175.45;;;57.50;;
75087;SDS011;63664;44.868;40.600;2023-02-27T17:30:25;171.45;;;56.55;;
75087;SDS011;63664;44.868;40.600;2023-02-27T17:32:52;162.10;;;57.13;;
75087;SDS011;63664;44.868;40.600;2023-02-27T17:35:18;165.55;;;57.60;;
75087;SDS011;63664;44.868;40.600;2023-02-27T17:37:44;170.77;;;56.47;;
75087;SDS011;63664;44.868;40.600;2023-02-27T17:40:13;160.18;;;56.22;;
75087;SDS011;63664;44.868;40.600;2023-02-27T17:42:39;158.75;;;52.22;;